Aeroporto :
LOGIN :

Iscrizione | Disclaimer

   EN    FR    IT 

 










Sommario :    VFR   VFR Marginale   IFR   IFR Intensivo   IFR Molto Intensivo
Visibilità : 
Base nubi : 
>= 8 km
>= 3000ft
5 / 8 km
1000 / 3000 ft
1500m / 5 km
500 / 1000 ft
800 / 1500m
200 / 500 ft
< 800m
< 200 ft
Simboli :   Temporali  Nebbia  Neve Forte  Precipitazioni Forti  Vento > 20 kt
SIGMETs :   Varie  Temporali  Ghiacco  Turbolenza  Onda orograficha  Ceneri Vulcaniche







- Altitudine del aeroporto : 74 ft
- Codice IATA : LRH
- Carte del aeroporto


LFBH - La Rochelle Ile de Ré

ULTIMO METAR :
  • 162300Z AUTO 15011KT CAVOK 11/04 Q1021 NOSIG

METARs OBSOLETI :
  • 162230Z AUTO 15011KT CAVOK 12/04 Q1021 NOSIG
  • 162200Z AUTO 15010KT CAVOK 11/04 Q1021 NOSIG
  • 162130Z AUTO 15009KT CAVOK 12/04 Q1022 NOSIG
  • 162100Z AUTO 15010KT CAVOK 12/05 Q1022 NOSIG
  • 162030Z AUTO 15010KT CAVOK 12/05 Q1022 NOSIG

TAF TAF LFBH
Valido dal 16 a 18 ore il 17 a 18 ore UTC


161700Z 1618/1718 15005KT CAVOK
BECMG 1703/1706 15015KT
ATIS : +33 5 46 00 13 92
Nessun NOTAM noto per questo aeroporto.
2 SIGMETs conosciuti per la FIR Bordeaux (LFBB) :
 
Forte onda orograficha
LFBB SIGMET 2 VALID 170100/170500 LFPW
LFBB BORDEAUX FIR/UIR SEV MTW FCST WI N4230 E00045 - N4300 W00145 - N4330 W00145 - N4300 E00045 - N4230 E00045 SFC/FL200 STNR WKN=
Turbolenza severa
LFBB SIGMET 1 VALID 162110/170100 LFPW
LFBB BORDEAUX FIR/UIR SEV TURB FCST WI N4230 E00045 - N4300 W00145 - N4330 W00145 - N4300 E00045 - N4230 E00045 SFC/FL100 STNR INTSF=



MetMap, La meteo Aeronautica in un colpo d'occhio ! - Copyright ORBIFLY Dicembre 2007 - Disclaimer

ORBIFLY MET'MAP TEAM :

Programmazione e sviluppo : Alexandra Zaïnal
Concezione e sviluppo : Baudouin d'Aumeries
Co-Programmazione e sviluppo : Marc-Olivier Méhu
Supporto tecnico e logistico : Manuel Goepfert
Aiuto per la traduzione : Arnaldo La Scala

Contatto : metmap@orbifly.com




FONTI E CREDITI :

   NOAA